sensor_id;sensor_type;location;lat;lon;timestamp;P1;durP1;ratioP1;P2;durP2;ratioP2
25331;SDS011;13284;52.748;13.452;2022-07-23T00:00:05;6.17;;;5.57;;
25331;SDS011;13284;52.748;13.452;2022-07-23T00:02:31;6.90;;;6.30;;
25331;SDS011;13284;52.748;13.452;2022-07-23T00:04:57;8.30;;;6.57;;
25331;SDS011;13284;52.748;13.452;2022-07-23T00:07:22;8.00;;;6.00;;
25331;SDS011;13284;52.748;13.452;2022-07-23T00:09:47;8.47;;;5.97;;
25331;SDS011;13284;52.748;13.452;2022-07-23T00:12:13;7.30;;;6.40;;
25331;SDS011;13284;52.748;13.452;2022-07-23T00:14:38;7.20;;;6.50;;
25331;SDS011;13284;52.748;13.452;2022-07-23T00:17:04;8.43;;;6.40;;
25331;SDS011;13284;52.748;13.452;2022-07-23T00:19:29;8.50;;;6.70;;
25331;SDS011;13284;52.748;13.452;2022-07-23T00:21:55;7.20;;;5.97;;
25331;SDS011;13284;52.748;13.452;2022-07-23T00:24:20;7.20;;;6.10;;
25331;SDS011;13284;52.748;13.452;2022-07-23T00:26:46;6.80;;;6.07;;
25331;SDS011;13284;52.748;13.452;2022-07-23T00:29:11;7.20;;;6.50;;
25331;SDS011;13284;52.748;13.452;2022-07-23T00:31:37;7.57;;;5.90;;
25331;SDS011;13284;52.748;13.452;2022-07-23T00:34:03;8.13;;;6.70;;
25331;SDS011;13284;52.748;13.452;2022-07-23T00:36:28;7.10;;;5.73;;
25331;SDS011;13284;52.748;13.452;2022-07-23T00:38:56;9.47;;;6.37;;
25331;SDS011;13284;52.748;13.452;2022-07-23T00:41:21;7.20;;;6.50;;
25331;SDS011;13284;52.748;13.452;2022-07-23T00:43:47;7.60;;;6.40;;
25331;SDS011;13284;52.748;13.452;2022-07-23T00:46:12;6.87;;;6.27;;
25331;SDS011;13284;52.748;13.452;2022-07-23T00:48:38;7.10;;;6.20;;
25331;SDS011;13284;52.748;13.452;2022-07-23T00:51:03;8.27;;;6.03;;
25331;SDS011;13284;52.748;13.452;2022-07-23T00:53:29;9.40;;;6.37;;
25331;SDS011;13284;52.748;13.452;2022-07-23T00:55:56;6.70;;;6.10;;
25331;SDS011;13284;52.748;13.452;2022-07-23T00:58:23;7.23;;;6.33;;
25331;SDS011;13284;52.748;13.452;2022-07-23T01:00:49;7.40;;;5.90;;
25331;SDS011;13284;52.748;13.452;2022-07-23T01:03:14;6.87;;;6.27;;
25331;SDS011;13284;52.748;13.452;2022-07-23T01:05:40;7.60;;;6.20;;
25331;SDS011;13284;52.748;13.452;2022-07-23T01:08:06;7.23;;;6.50;;
25331;SDS011;13284;52.748;13.452;2022-07-23T01:10:32;7.90;;;6.97;;
25331;SDS011;13284;52.748;13.452;2022-07-23T01:13:01;7.80;;;7.00;;
25331;SDS011;13284;52.748;13.452;2022-07-23T01:15:27;7.50;;;6.10;;
25331;SDS011;13284;52.748;13.452;2022-07-23T01:17:53;7.47;;;6.77;;
25331;SDS011;13284;52.748;13.452;2022-07-23T01:20:19;6.00;;;5.43;;
25331;SDS011;13284;52.748;13.452;2022-07-23T01:22:45;7.30;;;6.60;;
25331;SDS011;13284;52.748;13.452;2022-07-23T01:25:10;9.40;;;6.93;;
25331;SDS011;13284;52.748;13.452;2022-07-23T01:27:36;7.70;;;7.00;;
25331;SDS011;13284;52.748;13.452;2022-07-23T01:30:02;8.43;;;7.00;;
25331;SDS011;13284;52.748;13.452;2022-07-23T01:32:28;7.70;;;6.90;;
25331;SDS011;13284;52.748;13.452;2022-07-23T01:34:54;9.53;;;7.30;;
25331;SDS011;13284;52.748;13.452;2022-07-23T01:37:20;7.73;;;6.93;;
25331;SDS011;13284;52.748;13.452;2022-07-23T01:39:45;8.97;;;7.07;;
25331;SDS011;13284;52.748;13.452;2022-07-23T01:42:11;9.30;;;7.57;;
25331;SDS011;13284;52.748;13.452;2022-07-23T01:44:36;7.80;;;7.00;;
25331;SDS011;13284;52.748;13.452;2022-07-23T01:47:02;10.30;;;7.73;;
25331;SDS011;13284;52.748;13.452;2022-07-23T01:49:27;6.93;;;6.17;;
25331;SDS011;13284;52.748;13.452;2022-07-23T01:51:53;9.63;;;7.57;;
25331;SDS011;13284;52.748;13.452;2022-07-23T01:54:24;7.90;;;6.40;;
25331;SDS011;13284;52.748;13.452;2022-07-23T01:56:54;7.70;;;6.60;;
25331;SDS011;13284;52.748;13.452;2022-07-23T01:59:20;8.57;;;6.40;;
25331;SDS011;13284;52.748;13.452;2022-07-23T02:01:46;7.73;;;6.50;;
25331;SDS011;13284;52.748;13.452;2022-07-23T02:04:12;6.87;;;5.90;;
25331;SDS011;13284;52.748;13.452;2022-07-23T02:06:37;7.20;;;6.07;;
25331;SDS011;13284;52.748;13.452;2022-07-23T02:09:03;6.73;;;5.50;;
25331;SDS011;13284;52.748;13.452;2022-07-23T02:11:28;7.00;;;5.97;;
25331;SDS011;13284;52.748;13.452;2022-07-23T02:13:54;7.47;;;6.17;;
25331;SDS011;13284;52.748;13.452;2022-07-23T02:16:19;8.73;;;6.37;;
25331;SDS011;13284;52.748;13.452;2022-07-23T02:18:44;9.23;;;6.00;;
25331;SDS011;13284;52.748;13.452;2022-07-23T02:21:11;10.90;;;6.53;;
25331;SDS011;13284;52.748;13.452;2022-07-23T02:23:37;6.37;;;5.57;;
25331;SDS011;13284;52.748;13.452;2022-07-23T02:26:03;7.30;;;5.63;;
25331;SDS011;13284;52.748;13.452;2022-07-23T02:28:29;7.50;;;6.00;;
25331;SDS011;13284;52.748;13.452;2022-07-23T02:30:54;6.93;;;5.57;;
25331;SDS011;13284;52.748;13.452;2022-07-23T02:33:20;7.27;;;5.97;;
25331;SDS011;13284;52.748;13.452;2022-07-23T02:35:45;7.93;;;5.03;;
25331;SDS011;13284;52.748;13.452;2022-07-23T02:38:11;6.90;;;4.97;;
25331;SDS011;13284;52.748;13.452;2022-07-23T02:40:36;6.03;;;5.43;;
25331;SDS011;13284;52.748;13.452;2022-07-23T02:43:02;6.10;;;5.50;;
25331;SDS011;13284;52.748;13.452;2022-07-23T02:45:27;6.20;;;5.07;;
25331;SDS011;13284;52.748;13.452;2022-07-23T02:47:53;9.50;;;5.67;;
25331;SDS011;13284;52.748;13.452;2022-07-23T02:50:18;7.60;;;5.30;;
25331;SDS011;13284;52.748;13.452;2022-07-23T02:52:44;6.13;;;5.10;;
25331;SDS011;13284;52.748;13.452;2022-07-23T02:55:09;4.90;;;4.40;;
25331;SDS011;13284;52.748;13.452;2022-07-23T02:57:35;5.73;;;4.80;;
25331;SDS011;13284;52.748;13.452;2022-07-23T03:00:02;6.90;;;4.13;;
25331;SDS011;13284;52.748;13.452;2022-07-23T03:02:29;5.17;;;4.57;;
25331;SDS011;13284;52.748;13.452;2022-07-23T03:04:54;5.60;;;5.00;;
25331;SDS011;13284;52.748;13.452;2022-07-23T03:07:20;8.27;;;4.73;;
25331;SDS011;13284;52.748;13.452;2022-07-23T03:09:45;4.63;;;4.20;;
25331;SDS011;13284;52.748;13.452;2022-07-23T03:12:11;8.33;;;4.40;;
25331;SDS011;13284;52.748;13.452;2022-07-23T03:14:37;5.47;;;4.33;;
25331;SDS011;13284;52.748;13.452;2022-07-23T03:17:02;6.77;;;4.53;;
25331;SDS011;13284;52.748;13.452;2022-07-23T03:19:28;5.27;;;4.57;;
25331;SDS011;13284;52.748;13.452;2022-07-23T03:21:53;4.70;;;4.20;;
25331;SDS011;13284;52.748;13.452;2022-07-23T03:24:19;4.80;;;4.40;;
25331;SDS011;13284;52.748;13.452;2022-07-23T03:26:44;4.30;;;3.90;;
25331;SDS011;13284;52.748;13.452;2022-07-23T03:29:10;4.50;;;4.10;;
25331;SDS011;13284;52.748;13.452;2022-07-23T03:31:35;4.67;;;4.20;;
25331;SDS011;13284;52.748;13.452;2022-07-23T03:34:01;6.13;;;4.17;;
25331;SDS011;13284;52.748;13.452;2022-07-23T03:36:26;4.50;;;3.83;;
25331;SDS011;13284;52.748;13.452;2022-07-23T03:38:52;4.93;;;4.13;;
25331;SDS011;13284;52.748;13.452;2022-07-23T03:41:19;6.30;;;3.80;;
25331;SDS011;13284;52.748;13.452;2022-07-23T03:43:45;6.03;;;4.20;;
25331;SDS011;13284;52.748;13.452;2022-07-23T03:46:10;7.70;;;4.00;;
25331;SDS011;13284;52.748;13.452;2022-07-23T03:48:36;6.30;;;4.87;;
25331;SDS011;13284;52.748;13.452;2022-07-23T03:51:02;5.63;;;4.10;;
25331;SDS011;13284;52.748;13.452;2022-07-23T03:53:27;5.37;;;3.57;;
25331;SDS011;13284;52.748;13.452;2022-07-23T03:55:53;4.37;;;3.23;;
25331;SDS011;13284;52.748;13.452;2022-07-23T03:58:18;4.33;;;3.80;;
25331;SDS011;13284;52.748;13.452;2022-07-23T04:00:44;4.43;;;4.13;;
25331;SDS011;13284;52.748;13.452;2022-07-23T04:03:10;5.10;;;3.47;;
25331;SDS011;13284;52.748;13.452;2022-07-23T04:05:36;4.40;;;3.67;;
25331;SDS011;13284;52.748;13.452;2022-07-23T04:08:01;4.07;;;3.67;;
25331;SDS011;13284;52.748;13.452;2022-07-23T04:10:27;5.03;;;3.40;;
25331;SDS011;13284;52.748;13.452;2022-07-23T04:12:52;3.93;;;3.17;;
25331;SDS011;13284;52.748;13.452;2022-07-23T04:15:18;5.07;;;3.07;;
25331;SDS011;13284;52.748;13.452;2022-07-23T04:17:43;3.60;;;3.30;;
25331;SDS011;13284;52.748;13.452;2022-07-23T04:20:10;3.30;;;3.00;;
25331;SDS011;13284;52.748;13.452;2022-07-23T04:22:36;3.57;;;3.27;;
25331;SDS011;13284;52.748;13.452;2022-07-23T04:25:02;4.27;;;3.47;;
25331;SDS011;13284;52.748;13.452;2022-07-23T04:27:28;5.00;;;3.17;;
25331;SDS011;13284;52.748;13.452;2022-07-23T04:29:53;4.40;;;3.27;;
25331;SDS011;13284;52.748;13.452;2022-07-23T04:32:22;5.37;;;3.70;;
25331;SDS011;13284;52.748;13.452;2022-07-23T04:34:47;3.70;;;3.37;;
25331;SDS011;13284;52.748;13.452;2022-07-23T04:37:13;3.33;;;3.03;;
25331;SDS011;13284;52.748;13.452;2022-07-23T04:39:38;5.00;;;2.90;;
25331;SDS011;13284;52.748;13.452;2022-07-23T04:42:04;5.30;;;3.23;;
25331;SDS011;13284;52.748;13.452;2022-07-23T04:44:29;2.93;;;2.73;;
25331;SDS011;13284;52.748;13.452;2022-07-23T04:46:55;4.60;;;3.10;;
25331;SDS011;13284;52.748;13.452;2022-07-23T04:49:20;5.50;;;3.63;;
25331;SDS011;13284;52.748;13.452;2022-07-23T04:51:46;4.77;;;3.10;;
25331;SDS011;13284;52.748;13.452;2022-07-23T04:54:12;4.20;;;3.53;;
25331;SDS011;13284;52.748;13.452;2022-07-23T04:56:37;3.97;;;3.20;;
25331;SDS011;13284;52.748;13.452;2022-07-23T04:59:03;6.13;;;3.60;;
25331;SDS011;13284;52.748;13.452;2022-07-23T05:01:28;3.87;;;3.10;;
25331;SDS011;13284;52.748;13.452;2022-07-23T05:03:54;4.00;;;3.07;;
25331;SDS011;13284;52.748;13.452;2022-07-23T05:06:19;11.70;;;3.20;;
25331;SDS011;13284;52.748;13.452;2022-07-23T05:08:45;3.93;;;3.60;;
25331;SDS011;13284;52.748;13.452;2022-07-23T05:11:10;4.57;;;2.83;;
25331;SDS011;13284;52.748;13.452;2022-07-23T05:13:36;3.90;;;3.60;;
25331;SDS011;13284;52.748;13.452;2022-07-23T05:16:01;3.53;;;3.23;;
25331;SDS011;13284;52.748;13.452;2022-07-23T05:18:27;5.87;;;3.70;;
25331;SDS011;13284;52.748;13.452;2022-07-23T05:20:52;4.67;;;3.70;;
25331;SDS011;13284;52.748;13.452;2022-07-23T05:23:18;7.87;;;4.17;;
25331;SDS011;13284;52.748;13.452;2022-07-23T05:25:44;5.63;;;3.80;;
25331;SDS011;13284;52.748;13.452;2022-07-23T05:28:09;5.30;;;3.60;;
25331;SDS011;13284;52.748;13.452;2022-07-23T05:30:34;3.43;;;3.10;;
25331;SDS011;13284;52.748;13.452;2022-07-23T05:33:00;5.10;;;4.37;;
25331;SDS011;13284;52.748;13.452;2022-07-23T05:35:25;8.33;;;3.90;;
25331;SDS011;13284;52.748;13.452;2022-07-23T05:37:51;4.33;;;3.17;;
25331;SDS011;13284;52.748;13.452;2022-07-23T05:40:17;3.80;;;3.40;;
25331;SDS011;13284;52.748;13.452;2022-07-23T05:42:43;6.07;;;3.60;;
25331;SDS011;13284;52.748;13.452;2022-07-23T05:45:09;3.97;;;3.57;;
25331;SDS011;13284;52.748;13.452;2022-07-23T05:47:46;4.57;;;4.17;;
25331;SDS011;13284;52.748;13.452;2022-07-23T05:50:13;4.83;;;3.53;;
25331;SDS011;13284;52.748;13.452;2022-07-23T05:52:40;6.73;;;3.87;;
25331;SDS011;13284;52.748;13.452;2022-07-23T05:55:06;5.83;;;4.00;;
25331;SDS011;13284;52.748;13.452;2022-07-23T05:57:32;4.57;;;4.20;;
25331;SDS011;13284;52.748;13.452;2022-07-23T05:59:57;5.00;;;3.73;;
25331;SDS011;13284;52.748;13.452;2022-07-23T06:02:23;4.97;;;4.10;;
25331;SDS011;13284;52.748;13.452;2022-07-23T06:04:48;5.30;;;4.33;;
25331;SDS011;13284;52.748;13.452;2022-07-23T06:07:14;6.10;;;3.97;;
25331;SDS011;13284;52.748;13.452;2022-07-23T06:09:39;4.77;;;4.20;;
25331;SDS011;13284;52.748;13.452;2022-07-23T06:12:05;5.57;;;3.90;;
25331;SDS011;13284;52.748;13.452;2022-07-23T06:14:31;4.30;;;3.63;;
25331;SDS011;13284;52.748;13.452;2022-07-23T06:16:56;6.77;;;4.33;;
25331;SDS011;13284;52.748;13.452;2022-07-23T06:19:22;4.80;;;4.30;;
25331;SDS011;13284;52.748;13.452;2022-07-23T06:21:47;4.40;;;4.10;;
25331;SDS011;13284;52.748;13.452;2022-07-23T06:24:13;5.00;;;4.00;;
25331;SDS011;13284;52.748;13.452;2022-07-23T06:26:38;6.30;;;3.60;;
25331;SDS011;13284;52.748;13.452;2022-07-23T06:29:04;5.13;;;4.60;;
25331;SDS011;13284;52.748;13.452;2022-07-23T06:31:29;5.60;;;3.97;;
25331;SDS011;13284;52.748;13.452;2022-07-23T06:33:55;7.20;;;4.70;;
25331;SDS011;13284;52.748;13.452;2022-07-23T06:36:20;4.63;;;3.97;;
25331;SDS011;13284;52.748;13.452;2022-07-23T06:38:46;4.57;;;4.17;;
25331;SDS011;13284;52.748;13.452;2022-07-23T06:41:11;4.27;;;3.97;;
25331;SDS011;13284;52.748;13.452;2022-07-23T06:43:37;7.00;;;4.40;;
25331;SDS011;13284;52.748;13.452;2022-07-23T06:46:03;4.97;;;4.23;;
25331;SDS011;13284;52.748;13.452;2022-07-23T06:48:28;5.30;;;3.97;;
25331;SDS011;13284;52.748;13.452;2022-07-23T06:50:54;4.90;;;3.77;;
25331;SDS011;13284;52.748;13.452;2022-07-23T06:53:20;6.57;;;4.50;;
25331;SDS011;13284;52.748;13.452;2022-07-23T06:55:45;6.63;;;4.13;;
25331;SDS011;13284;52.748;13.452;2022-07-23T06:58:11;5.10;;;4.33;;
25331;SDS011;13284;52.748;13.452;2022-07-23T07:00:38;5.30;;;4.00;;
25331;SDS011;13284;52.748;13.452;2022-07-23T07:03:04;5.93;;;4.43;;
25331;SDS011;13284;52.748;13.452;2022-07-23T07:05:30;6.83;;;3.80;;
25331;SDS011;13284;52.748;13.452;2022-07-23T07:07:55;3.77;;;3.37;;
25331;SDS011;13284;52.748;13.452;2022-07-23T07:10:21;4.97;;;3.80;;
25331;SDS011;13284;52.748;13.452;2022-07-23T07:12:47;4.43;;;4.00;;
25331;SDS011;13284;52.748;13.452;2022-07-23T07:15:12;4.70;;;4.20;;
25331;SDS011;13284;52.748;13.452;2022-07-23T07:17:38;4.70;;;3.77;;
25331;SDS011;13284;52.748;13.452;2022-07-23T07:20:04;5.23;;;3.87;;
25331;SDS011;13284;52.748;13.452;2022-07-23T07:22:30;4.20;;;3.80;;
25331;SDS011;13284;52.748;13.452;2022-07-23T07:24:56;4.17;;;3.87;;
25331;SDS011;13284;52.748;13.452;2022-07-23T07:27:21;4.00;;;3.70;;
25331;SDS011;13284;52.748;13.452;2022-07-23T07:29:47;3.80;;;3.50;;
25331;SDS011;13284;52.748;13.452;2022-07-23T07:32:13;4.30;;;3.10;;
25331;SDS011;13284;52.748;13.452;2022-07-23T07:34:38;4.33;;;3.70;;
25331;SDS011;13284;52.748;13.452;2022-07-23T07:37:04;4.40;;;3.70;;
25331;SDS011;13284;52.748;13.452;2022-07-23T07:39:29;4.30;;;3.50;;
25331;SDS011;13284;52.748;13.452;2022-07-23T07:41:55;7.20;;;3.57;;
25331;SDS011;13284;52.748;13.452;2022-07-23T07:44:20;3.90;;;3.30;;
25331;SDS011;13284;52.748;13.452;2022-07-23T07:46:46;10.63;;;3.63;;
25331;SDS011;13284;52.748;13.452;2022-07-23T07:49:11;2.80;;;2.50;;
25331;SDS011;13284;52.748;13.452;2022-07-23T07:51:37;3.57;;;3.27;;
25331;SDS011;13284;52.748;13.452;2022-07-23T07:54:02;3.43;;;2.63;;
25331;SDS011;13284;52.748;13.452;2022-07-23T07:56:28;4.10;;;3.13;;
25331;SDS011;13284;52.748;13.452;2022-07-23T07:58:53;6.00;;;3.53;;
25331;SDS011;13284;52.748;13.452;2022-07-23T08:01:19;3.17;;;2.80;;
25331;SDS011;13284;52.748;13.452;2022-07-23T08:03:44;4.93;;;3.03;;
25331;SDS011;13284;52.748;13.452;2022-07-23T08:06:10;3.53;;;3.23;;
25331;SDS011;13284;52.748;13.452;2022-07-23T08:08:36;6.63;;;3.20;;
25331;SDS011;13284;52.748;13.452;2022-07-23T08:11:02;4.27;;;3.87;;
25331;SDS011;13284;52.748;13.452;2022-07-23T08:13:27;4.60;;;3.10;;
25331;SDS011;13284;52.748;13.452;2022-07-23T08:15:53;3.17;;;2.90;;
25331;SDS011;13284;52.748;13.452;2022-07-23T08:18:19;3.40;;;3.10;;
25331;SDS011;13284;52.748;13.452;2022-07-23T08:20:44;6.07;;;3.50;;
25331;SDS011;13284;52.748;13.452;2022-07-23T08:23:10;3.97;;;2.40;;
25331;SDS011;13284;52.748;13.452;2022-07-23T08:25:37;3.20;;;2.90;;
25331;SDS011;13284;52.748;13.452;2022-07-23T08:28:05;4.07;;;3.20;;
25331;SDS011;13284;52.748;13.452;2022-07-23T08:30:32;2.57;;;2.37;;
25331;SDS011;13284;52.748;13.452;2022-07-23T08:33:02;3.33;;;2.43;;
25331;SDS011;13284;52.748;13.452;2022-07-23T08:37:56;3.10;;;2.43;;
25331;SDS011;13284;52.748;13.452;2022-07-23T08:40:22;2.37;;;2.10;;
25331;SDS011;13284;52.748;13.452;2022-07-23T08:42:50;2.50;;;2.30;;
25331;SDS011;13284;52.748;13.452;2022-07-23T08:45:17;2.93;;;2.40;;
25331;SDS011;13284;52.748;13.452;2022-07-23T08:47:44;3.10;;;2.53;;
25331;SDS011;13284;52.748;13.452;2022-07-23T08:50:10;3.53;;;2.40;;
25331;SDS011;13284;52.748;13.452;2022-07-23T08:52:36;2.50;;;2.27;;
25331;SDS011;13284;52.748;13.452;2022-07-23T08:55:02;3.20;;;2.50;;
25331;SDS011;13284;52.748;13.452;2022-07-23T08:57:28;4.83;;;2.87;;
25331;SDS011;13284;52.748;13.452;2022-07-23T08:59:54;3.20;;;2.90;;
25331;SDS011;13284;52.748;13.452;2022-07-23T09:02:20;4.87;;;2.60;;
25331;SDS011;13284;52.748;13.452;2022-07-23T09:04:45;3.57;;;2.20;;
25331;SDS011;13284;52.748;13.452;2022-07-23T09:07:11;3.73;;;2.60;;
25331;SDS011;13284;52.748;13.452;2022-07-23T09:09:36;2.57;;;2.37;;
25331;SDS011;13284;52.748;13.452;2022-07-23T09:12:05;3.20;;;2.90;;
25331;SDS011;13284;52.748;13.452;2022-07-23T09:14:40;3.40;;;3.10;;
25331;SDS011;13284;52.748;13.452;2022-07-23T09:17:24;3.40;;;3.10;;
25331;SDS011;13284;52.748;13.452;2022-07-23T09:19:49;3.50;;;3.20;;
25331;SDS011;13284;52.748;13.452;2022-07-23T09:22:25;4.60;;;2.97;;
25331;SDS011;13284;52.748;13.452;2022-07-23T09:25:11;4.93;;;3.37;;
25331;SDS011;13284;52.748;13.452;2022-07-23T09:27:49;2.80;;;2.60;;
25331;SDS011;13284;52.748;13.452;2022-07-23T09:30:15;4.93;;;3.70;;
25331;SDS011;13284;52.748;13.452;2022-07-23T09:32:41;4.83;;;3.60;;
25331;SDS011;13284;52.748;13.452;2022-07-23T09:35:07;3.67;;;3.37;;
25331;SDS011;13284;52.748;13.452;2022-07-23T09:37:33;4.00;;;3.20;;
25331;SDS011;13284;52.748;13.452;2022-07-23T09:40:06;6.60;;;3.53;;
25331;SDS011;13284;52.748;13.452;2022-07-23T09:42:38;4.20;;;3.50;;
25331;SDS011;13284;52.748;13.452;2022-07-23T09:45:03;4.13;;;3.80;;
25331;SDS011;13284;52.748;13.452;2022-07-23T09:47:36;3.43;;;3.13;;
25331;SDS011;13284;52.748;13.452;2022-07-23T09:50:05;5.53;;;3.63;;
25331;SDS011;13284;52.748;13.452;2022-07-23T09:52:44;5.43;;;3.93;;
25331;SDS011;13284;52.748;13.452;2022-07-23T09:55:12;6.60;;;3.70;;
25331;SDS011;13284;52.748;13.452;2022-07-23T09:57:40;6.30;;;3.67;;
25331;SDS011;13284;52.748;13.452;2022-07-23T10:00:06;3.70;;;3.20;;
25331;SDS011;13284;52.748;13.452;2022-07-23T10:02:35;4.03;;;3.53;;
25331;SDS011;13284;52.748;13.452;2022-07-23T10:05:01;3.63;;;3.33;;
25331;SDS011;13284;52.748;13.452;2022-07-23T10:07:27;4.57;;;3.60;;
25331;SDS011;13284;52.748;13.452;2022-07-23T10:09:58;4.00;;;3.17;;
25331;SDS011;13284;52.748;13.452;2022-07-23T10:12:25;11.60;;;4.43;;
25331;SDS011;13284;52.748;13.452;2022-07-23T10:15:03;3.47;;;3.03;;
25331;SDS011;13284;52.748;13.452;2022-07-23T10:17:33;3.73;;;3.40;;
25331;SDS011;13284;52.748;13.452;2022-07-23T10:19:59;3.50;;;3.13;;
25331;SDS011;13284;52.748;13.452;2022-07-23T10:23:00;4.33;;;3.50;;
25331;SDS011;13284;52.748;13.452;2022-07-23T10:25:31;3.87;;;3.50;;
25331;SDS011;13284;52.748;13.452;2022-07-23T10:28:27;3.77;;;3.47;;
25331;SDS011;13284;52.748;13.452;2022-07-23T10:37:21;4.17;;;3.77;;
25331;SDS011;13284;52.748;13.452;2022-07-23T10:40:09;3.67;;;3.40;;
25331;SDS011;13284;52.748;13.452;2022-07-23T10:42:39;3.53;;;3.20;;
25331;SDS011;13284;52.748;13.452;2022-07-23T10:47:48;5.23;;;3.60;;
25331;SDS011;13284;52.748;13.452;2022-07-23T10:50:23;4.00;;;3.53;;
25331;SDS011;13284;52.748;13.452;2022-07-23T10:53:11;4.57;;;4.07;;
25331;SDS011;13284;52.748;13.452;2022-07-23T10:55:42;5.97;;;3.73;;
25331;SDS011;13284;52.748;13.452;2022-07-23T10:58:09;3.90;;;3.50;;
25331;SDS011;13284;52.748;13.452;2022-07-23T11:00:36;3.57;;;3.33;;
25331;SDS011;13284;52.748;13.452;2022-07-23T11:03:03;4.70;;;2.93;;
25331;SDS011;13284;52.748;13.452;2022-07-23T11:10:41;3.80;;;2.93;;
25331;SDS011;13284;52.748;13.452;2022-07-23T11:26:52;3.53;;;3.23;;
25331;SDS011;13284;52.748;13.452;2022-07-23T11:31:55;2.83;;;2.63;;
25331;SDS011;13284;52.748;13.452;2022-07-23T11:34:35;2.60;;;2.40;;
25331;SDS011;13284;52.748;13.452;2022-07-23T11:37:04;2.57;;;2.37;;
25331;SDS011;13284;52.748;13.452;2022-07-23T11:39:32;2.97;;;2.67;;
25331;SDS011;13284;52.748;13.452;2022-07-23T11:41:58;3.10;;;2.90;;
25331;SDS011;13284;52.748;13.452;2022-07-23T11:44:28;5.70;;;2.70;;
25331;SDS011;13284;52.748;13.452;2022-07-23T11:46:59;4.13;;;2.90;;
25331;SDS011;13284;52.748;13.452;2022-07-23T11:49:26;3.80;;;3.40;;
25331;SDS011;13284;52.748;13.452;2022-07-23T11:57:30;2.80;;;2.60;;
25331;SDS011;13284;52.748;13.452;2022-07-23T12:00:07;3.70;;;3.03;;
25331;SDS011;13284;52.748;13.452;2022-07-23T12:02:34;4.30;;;3.20;;
25331;SDS011;13284;52.748;13.452;2022-07-23T12:05:00;3.77;;;3.20;;
25331;SDS011;13284;52.748;13.452;2022-07-23T12:07:35;3.30;;;3.00;;
25331;SDS011;13284;52.748;13.452;2022-07-23T12:10:15;2.70;;;2.50;;
25331;SDS011;13284;52.748;13.452;2022-07-23T12:12:55;2.97;;;2.67;;
25331;SDS011;13284;52.748;13.452;2022-07-23T12:15:24;3.10;;;2.77;;
25331;SDS011;13284;52.748;13.452;2022-07-23T12:17:52;3.20;;;2.70;;
25331;SDS011;13284;52.748;13.452;2022-07-23T12:20:19;3.63;;;3.10;;
25331;SDS011;13284;52.748;13.452;2022-07-23T12:22:48;3.30;;;3.00;;
25331;SDS011;13284;52.748;13.452;2022-07-23T12:25:16;3.53;;;3.20;;
25331;SDS011;13284;52.748;13.452;2022-07-23T12:27:43;3.47;;;3.17;;
25331;SDS011;13284;52.748;13.452;2022-07-23T12:32:49;3.40;;;3.10;;
25331;SDS011;13284;52.748;13.452;2022-07-23T12:35:16;3.60;;;3.30;;
25331;SDS011;13284;52.748;13.452;2022-07-23T12:37:42;4.27;;;3.23;;
25331;SDS011;13284;52.748;13.452;2022-07-23T12:40:19;2.63;;;2.47;;
25331;SDS011;13284;52.748;13.452;2022-07-23T12:42:47;2.50;;;2.40;;
25331;SDS011;13284;52.748;13.452;2022-07-23T12:45:14;3.20;;;2.57;;
25331;SDS011;13284;52.748;13.452;2022-07-23T12:50:34;3.10;;;2.90;;
25331;SDS011;13284;52.748;13.452;2022-07-23T12:53:04;4.03;;;3.17;;
25331;SDS011;13284;52.748;13.452;2022-07-23T12:55:31;3.30;;;3.10;;
25331;SDS011;13284;52.748;13.452;2022-07-23T12:58:07;3.17;;;2.73;;
25331;SDS011;13284;52.748;13.452;2022-07-23T13:03:25;4.23;;;2.90;;
25331;SDS011;13284;52.748;13.452;2022-07-23T13:05:55;3.30;;;2.90;;
25331;SDS011;13284;52.748;13.452;2022-07-23T13:08:21;3.67;;;2.70;;
25331;SDS011;13284;52.748;13.452;2022-07-23T13:10:47;3.43;;;2.93;;
25331;SDS011;13284;52.748;13.452;2022-07-23T13:13:14;4.40;;;2.67;;
25331;SDS011;13284;52.748;13.452;2022-07-23T13:15:40;3.93;;;3.63;;
25331;SDS011;13284;52.748;13.452;2022-07-23T13:18:07;2.63;;;2.47;;
25331;SDS011;13284;52.748;13.452;2022-07-23T13:20:32;3.90;;;2.63;;
25331;SDS011;13284;52.748;13.452;2022-07-23T13:22:59;2.70;;;2.50;;
25331;SDS011;13284;52.748;13.452;2022-07-23T13:25:25;5.70;;;2.77;;
25331;SDS011;13284;52.748;13.452;2022-07-23T13:27:51;2.20;;;2.10;;
25331;SDS011;13284;52.748;13.452;2022-07-23T13:30:17;2.10;;;1.93;;
25331;SDS011;13284;52.748;13.452;2022-07-23T13:32:42;3.40;;;2.07;;
25331;SDS011;13284;52.748;13.452;2022-07-23T13:35:08;2.53;;;2.20;;
25331;SDS011;13284;52.748;13.452;2022-07-23T13:37:34;3.90;;;2.07;;
25331;SDS011;13284;52.748;13.452;2022-07-23T13:40:00;2.30;;;1.90;;
25331;SDS011;13284;52.748;13.452;2022-07-23T13:42:26;2.73;;;1.90;;
25331;SDS011;13284;52.748;13.452;2022-07-23T13:44:52;2.50;;;2.03;;
25331;SDS011;13284;52.748;13.452;2022-07-23T13:47:18;2.17;;;1.97;;
25331;SDS011;13284;52.748;13.452;2022-07-23T13:49:44;2.73;;;2.10;;
25331;SDS011;13284;52.748;13.452;2022-07-23T13:52:09;2.33;;;2.13;;
25331;SDS011;13284;52.748;13.452;2022-07-23T13:54:35;1.83;;;1.70;;
25331;SDS011;13284;52.748;13.452;2022-07-23T13:57:01;3.60;;;2.00;;
25331;SDS011;13284;52.748;13.452;2022-07-23T13:59:26;1.73;;;1.63;;
25331;SDS011;13284;52.748;13.452;2022-07-23T14:01:52;2.17;;;1.97;;
25331;SDS011;13284;52.748;13.452;2022-07-23T14:04:18;2.17;;;2.03;;
25331;SDS011;13284;52.748;13.452;2022-07-23T14:06:43;2.77;;;2.03;;
25331;SDS011;13284;52.748;13.452;2022-07-23T14:09:09;3.70;;;2.40;;
25331;SDS011;13284;52.748;13.452;2022-07-23T14:11:34;2.70;;;2.10;;
25331;SDS011;13284;52.748;13.452;2022-07-23T14:14:00;3.27;;;1.80;;
25331;SDS011;13284;52.748;13.452;2022-07-23T14:16:26;1.73;;;1.63;;
25331;SDS011;13284;52.748;13.452;2022-07-23T14:18:51;1.97;;;1.53;;
25331;SDS011;13284;52.748;13.452;2022-07-23T14:21:17;2.03;;;1.93;;
25331;SDS011;13284;52.748;13.452;2022-07-23T14:23:42;3.67;;;1.60;;
25331;SDS011;13284;52.748;13.452;2022-07-23T14:26:08;2.40;;;1.70;;
25331;SDS011;13284;52.748;13.452;2022-07-23T14:28:33;1.93;;;1.40;;
25331;SDS011;13284;52.748;13.452;2022-07-23T14:30:59;2.00;;;1.50;;
25331;SDS011;13284;52.748;13.452;2022-07-23T14:33:25;1.50;;;1.40;;
25331;SDS011;13284;52.748;13.452;2022-07-23T14:35:51;2.10;;;1.40;;
25331;SDS011;13284;52.748;13.452;2022-07-23T14:38:17;3.90;;;2.27;;
25331;SDS011;13284;52.748;13.452;2022-07-23T14:40:42;2.03;;;1.70;;
25331;SDS011;13284;52.748;13.452;2022-07-23T14:43:08;1.60;;;1.50;;
25331;SDS011;13284;52.748;13.452;2022-07-23T14:45:33;1.60;;;1.50;;
25331;SDS011;13284;52.748;13.452;2022-07-23T14:47:59;1.70;;;1.60;;
25331;SDS011;13284;52.748;13.452;2022-07-23T14:50:27;3.00;;;1.23;;
25331;SDS011;13284;52.748;13.452;2022-07-23T14:52:52;1.87;;;1.73;;
25331;SDS011;13284;52.748;13.452;2022-07-23T14:55:18;1.30;;;1.20;;
25331;SDS011;13284;52.748;13.452;2022-07-23T14:57:44;1.70;;;1.60;;
25331;SDS011;13284;52.748;13.452;2022-07-23T15:00:09;1.60;;;1.50;;
25331;SDS011;13284;52.748;13.452;2022-07-23T15:02:35;1.70;;;1.60;;
25331;SDS011;13284;52.748;13.452;2022-07-23T15:05:01;1.50;;;1.40;;
25331;SDS011;13284;52.748;13.452;2022-07-23T15:07:27;1.50;;;1.40;;
25331;SDS011;13284;52.748;13.452;2022-07-23T15:09:54;1.53;;;1.43;;
25331;SDS011;13284;52.748;13.452;2022-07-23T15:12:21;1.70;;;1.47;;
25331;SDS011;13284;52.748;13.452;2022-07-23T15:14:46;1.20;;;1.10;;
25331;SDS011;13284;52.748;13.452;2022-07-23T15:17:12;1.70;;;1.60;;